createdAt,value
2023-02-22T00:00:09.929Z,98575.42
2023-02-22T00:03:10.350Z,98581.40
2023-02-22T00:06:07.925Z,98583.98
2023-02-22T00:09:35.373Z,98584.00
2023-02-22T00:15:33.773Z,98584.63
2023-02-22T00:18:12.090Z,98585.22
2023-02-22T00:20:46.936Z,98583.28
2023-02-22T00:23:22.137Z,98583.64
2023-02-22T00:25:58.608Z,98584.14
2023-02-22T00:29:00.122Z,98584.52
2023-02-22T00:32:00.424Z,98584.22
2023-02-22T00:34:36.686Z,98586.36
2023-02-22T00:38:02.615Z,98587.27
2023-02-22T00:40:40.221Z,98591.75
2023-02-22T00:43:41.741Z,98589.64
2023-02-22T00:46:47.619Z,98589.94
2023-02-22T00:49:23.348Z,98596.87
2023-02-22T00:51:58.792Z,98597.42
2023-02-22T00:54:33.032Z,98591.15
2023-02-22T00:57:06.848Z,98592.27
2023-02-22T00:59:43.301Z,98591.31
2023-02-22T01:02:23.374Z,98591.58
2023-02-22T01:05:01.105Z,98592.10
2023-02-22T01:07:40.877Z,98594.56
2023-02-22T01:10:19.494Z,98595.02
2023-02-22T01:13:23.139Z,98596.36
2023-02-22T01:15:58.630Z,98597.73
2023-02-22T01:21:33.888Z,98596.05
2023-02-22T01:34:48.369Z,98589.67
2023-02-22T01:41:58.636Z,98589.49
2023-02-22T01:44:35.184Z,98589.59
2023-02-22T01:47:09.781Z,98592.25
2023-02-22T01:50:35.273Z,98589.98
2023-02-22T01:53:12.873Z,98590.27
2023-02-22T01:55:51.681Z,98591.61
2023-02-22T01:58:27.618Z,98592.98
2023-02-22T02:01:08.034Z,98587.36
2023-02-22T02:04:10.651Z,98586.08
2023-02-22T02:06:49.549Z,98584.06
2023-02-22T02:09:50.728Z,98589.30
2023-02-22T02:12:51.276Z,98587.28
2023-02-22T02:15:53.856Z,98590.13
2023-02-22T02:18:29.591Z,98590.02
2023-02-22T02:21:48.361Z,98594.20
2023-02-22T02:24:59.778Z,98597.01
2023-02-22T02:27:48.448Z,98585.12
2023-02-22T02:31:11.339Z,98591.86
2023-02-22T02:34:55.032Z,98587.98
2023-02-22T02:38:00.495Z,98591.79
2023-02-22T02:40:38.723Z,98597.06
2023-02-22T02:43:27.420Z,98597.31
2023-02-22T02:46:04.998Z,98601.07
2023-02-22T02:49:06.607Z,98600.81
2023-02-22T02:51:43.511Z,98604.41
2023-02-22T02:54:20.268Z,98605.80
2023-02-22T02:57:05.610Z,98605.61
2023-02-22T02:59:39.683Z,98604.41
2023-02-22T03:02:25.081Z,98605.27
2023-02-22T03:05:41.420Z,98606.98
2023-02-22T03:09:04.188Z,98603.44
2023-02-22T03:11:48.612Z,98608.11
2023-02-22T03:21:11.704Z,98606.52
2023-02-22T03:23:55.787Z,98606.04
2023-02-22T03:27:01.647Z,98605.71
2023-02-22T03:30:25.679Z,98604.20
2023-02-22T03:33:30.869Z,98607.14
2023-02-22T03:36:34.169Z,98609.56
2023-02-22T03:42:37.744Z,98613.30
2023-02-22T03:45:15.624Z,98619.60
2023-02-22T03:48:19.618Z,98617.70
2023-02-22T03:51:02.682Z,98624.71
2023-02-22T03:54:27.419Z,98624.50
2023-02-22T04:00:29.426Z,98623.38
2023-02-22T04:03:31.723Z,98623.41
2023-02-22T04:06:05.858Z,98623.88
2023-02-22T04:09:30.416Z,98627.22
2023-02-22T04:12:06.371Z,98617.82
2023-02-22T04:14:43.899Z,98618.75
2023-02-22T04:17:18.646Z,98617.77
2023-02-22T04:19:52.277Z,98619.83
2023-02-22T04:29:13.711Z,98618.71
2023-02-22T04:31:49.368Z,98617.42
2023-02-22T04:34:26.509Z,98620.60
2023-02-22T04:37:30.660Z,98615.77
2023-02-22T04:40:31.477Z,98611.14
2023-02-22T04:43:09.029Z,98618.98
2023-02-22T04:45:44.029Z,98610.95
2023-02-22T04:48:16.243Z,98610.05
2023-02-22T04:51:14.328Z,98607.07
2023-02-22T04:53:50.498Z,98610.84
2023-02-22T04:56:48.993Z,98611.00
2023-02-22T04:59:53.876Z,98612.45
2023-02-22T05:02:52.523Z,98616.83
2023-02-22T05:05:26.885Z,98612.05
2023-02-22T05:08:04.524Z,98613.31
2023-02-22T05:11:02.815Z,98615.89
2023-02-22T05:14:04.320Z,98614.02
2023-02-22T05:16:40.618Z,98616.98
2023-02-22T05:19:16.333Z,98612.60
2023-02-22T05:21:53.349Z,98616.47
2023-02-22T05:24:29.328Z,98621.42
2023-02-22T05:27:09.869Z,98624.39
2023-02-22T05:29:48.038Z,98625.70
2023-02-22T05:32:23.892Z,98629.04
2023-02-22T05:35:02.038Z,98631.95
2023-02-22T05:37:37.055Z,98629.50
2023-02-22T05:40:17.374Z,98629.17
2023-02-22T05:42:52.957Z,98637.30
2023-02-22T05:45:27.705Z,98641.55
2023-02-22T05:48:07.404Z,98643.65
2023-02-22T05:51:05.203Z,98646.86
2023-02-22T05:53:38.639Z,98642.66
2023-02-22T05:56:11.016Z,98646.30
2023-02-22T06:01:46.856Z,98650.44
2023-02-22T06:04:20.266Z,98649.98
2023-02-22T06:06:53.144Z,98654.89
2023-02-22T06:09:53.595Z,98651.70
2023-02-22T06:12:32.798Z,98654.76
2023-02-22T06:15:10.774Z,98660.20
2023-02-22T06:17:45.583Z,98667.18
2023-02-22T06:20:44.568Z,98667.13
2023-02-22T06:23:18.893Z,98667.98
2023-02-22T06:25:55.700Z,98668.66
2023-02-22T06:28:33.106Z,98676.41
2023-02-22T06:31:10.246Z,98676.25
2023-02-22T06:33:43.075Z,98682.84
2023-02-22T06:36:39.308Z,98682.27
2023-02-22T06:43:04.468Z,98694.41
2023-02-22T06:45:39.577Z,98696.86
2023-02-22T06:48:16.587Z,98694.59
2023-02-22T06:50:56.234Z,98697.70
2023-02-22T06:53:33.552Z,98698.54
2023-02-22T06:59:52.509Z,98704.55
2023-02-22T07:02:26.392Z,98707.08
2023-02-22T07:05:04.304Z,98713.57
2023-02-22T07:07:41.074Z,98713.70
2023-02-22T07:10:23.971Z,98710.34
2023-02-22T07:12:58.306Z,98715.68
2023-02-22T07:15:34.479Z,98714.49
2023-02-22T07:18:33.682Z,98716.14
2023-02-22T07:21:09.243Z,98716.96
2023-02-22T07:23:48.903Z,98718.23
2023-02-22T07:26:48.561Z,98714.91
2023-02-22T07:29:22.557Z,98716.09
2023-02-22T07:31:57.867Z,98714.40
2023-02-22T07:34:34.797Z,98716.42
2023-02-22T07:37:56.331Z,98721.38
2023-02-22T07:40:32.800Z,98719.22
2023-02-22T07:43:43.254Z,98719.85
2023-02-22T07:46:17.978Z,98722.80
2023-02-22T07:49:41.351Z,98721.34
2023-02-22T07:52:40.554Z,98718.39
2023-02-22T07:55:16.411Z,98719.58
2023-02-22T07:57:57.075Z,98723.55
2023-02-22T08:00:39.381Z,98719.29
2023-02-22T08:06:24.862Z,98717.63
2023-02-22T08:08:59.122Z,98710.73
2023-02-22T08:12:01.199Z,98714.81
2023-02-22T08:15:01.947Z,98713.23
2023-02-22T08:20:40.955Z,98717.23
2023-02-22T08:23:19.000Z,98715.73
2023-02-22T08:25:55.059Z,98712.64
2023-02-22T08:29:18.002Z,98710.64
2023-02-22T08:32:16.739Z,98710.31
2023-02-22T08:37:47.962Z,98714.45
2023-02-22T08:40:23.772Z,98716.80
2023-02-22T08:42:58.559Z,98721.60
2023-02-22T08:45:36.857Z,98718.91
2023-02-22T08:48:36.639Z,98723.14
2023-02-22T08:57:49.249Z,98725.05
2023-02-22T09:00:49.132Z,98727.23
2023-02-22T09:03:22.792Z,98724.35
2023-02-22T09:06:01.595Z,98724.35
2023-02-22T09:08:57.744Z,98724.90
2023-02-22T09:11:30.326Z,98729.98
2023-02-22T09:14:06.508Z,98726.50
2023-02-22T09:17:05.792Z,98727.98
2023-02-22T09:19:44.879Z,98731.41
2023-02-22T09:22:19.455Z,98731.16
2023-02-22T09:25:17.441Z,98732.09
2023-02-22T09:27:54.734Z,98730.74
2023-02-22T09:30:32.230Z,98731.94
2023-02-22T09:33:06.875Z,98729.50
2023-02-22T09:36:33.231Z,98727.16
2023-02-22T09:39:11.469Z,98729.11
2023-02-22T09:41:55.340Z,98732.25
2023-02-22T09:47:46.929Z,98719.65
2023-02-22T09:50:25.649Z,98720.95
2023-02-22T09:53:50.649Z,98719.06
2023-02-22T09:56:29.914Z,98718.42
2023-02-22T09:59:08.751Z,98718.77
2023-02-22T10:02:09.982Z,98716.15
2023-02-22T10:11:25.689Z,98713.79
2023-02-22T10:14:35.345Z,98711.98
2023-02-22T10:17:41.496Z,98711.48
2023-02-22T10:20:28.711Z,98708.35
2023-02-22T10:23:36.545Z,98708.36
2023-02-22T10:26:44.938Z,98711.84
2023-02-22T10:29:25.608Z,98711.92
2023-02-22T10:32:22.575Z,98712.16
2023-02-22T10:35:00.342Z,98711.96
2023-02-22T10:37:35.518Z,98712.73
2023-02-22T10:40:36.200Z,98713.11
2023-02-22T10:43:11.184Z,98708.73
2023-02-22T10:45:45.796Z,98705.23
2023-02-22T10:48:46.427Z,98701.94
2023-02-22T10:51:42.581Z,98701.79
2023-02-22T10:54:28.102Z,98700.80
2023-02-22T10:57:05.892Z,98702.59
2023-02-22T11:00:27.251Z,98701.19
2023-02-22T11:03:26.009Z,98705.23
2023-02-22T11:06:01.566Z,98701.20
2023-02-22T11:08:36.662Z,98698.03
2023-02-22T11:11:26.385Z,98695.91
2023-02-22T11:14:28.402Z,98694.67
2023-02-22T11:17:04.514Z,98692.55
2023-02-22T11:22:48.180Z,98687.67
2023-02-22T11:25:26.856Z,98685.36
2023-02-22T11:28:16.651Z,98689.66
2023-02-22T11:30:59.565Z,98688.25
2023-02-22T11:33:34.200Z,98687.20
2023-02-22T11:36:34.053Z,98684.86
2023-02-22T11:39:22.616Z,98681.99
2023-02-22T11:42:52.079Z,98684.38
2023-02-22T11:45:58.559Z,98686.42
2023-02-22T11:48:39.505Z,98686.66
2023-02-22T11:51:31.302Z,98686.52
2023-02-22T11:54:30.606Z,98688.68
2023-02-22T11:57:30.653Z,98680.27
2023-02-22T12:04:05.932Z,98679.08
2023-02-22T12:09:52.251Z,98678.34
2023-02-22T12:12:29.680Z,98681.98
2023-02-22T12:15:14.037Z,98677.91
2023-02-22T12:18:00.011Z,98674.92
2023-02-22T12:20:40.971Z,98675.45
2023-02-22T12:23:23.386Z,98677.73
2023-02-22T12:29:10.512Z,98678.04
2023-02-22T12:31:48.465Z,98671.34
2023-02-22T12:34:36.018Z,98678.52
2023-02-22T12:37:16.183Z,98675.15
2023-02-22T12:40:25.132Z,98676.83
2023-02-22T12:43:05.836Z,98673.28
2023-02-22T12:45:44.180Z,98671.52
2023-02-22T12:48:27.878Z,98673.00
2023-02-22T12:51:05.805Z,98669.95
2023-02-22T12:53:40.226Z,98671.02
2023-02-22T12:56:23.831Z,98670.50
2023-02-22T12:59:29.037Z,98665.14
2023-02-22T13:02:37.292Z,98662.55
2023-02-22T13:05:21.568Z,98666.59
2023-02-22T13:08:24.609Z,98668.54
2023-02-22T13:11:17.376Z,98663.43
2023-02-22T13:16:59.935Z,98663.66
2023-02-22T13:19:41.798Z,98664.23
2023-02-22T13:25:23.350Z,98658.75
2023-02-22T13:28:26.880Z,98657.11
2023-02-22T13:31:15.978Z,98658.67
2023-02-22T13:34:05.844Z,98660.24
2023-02-22T13:36:51.707Z,98657.02
2023-02-22T13:39:57.502Z,98660.85
2023-02-22T13:42:52.522Z,98658.15
2023-02-22T13:45:45.476Z,98658.48
2023-02-22T13:48:29.976Z,98658.70
2023-02-22T13:51:11.498Z,98652.56
2023-02-22T13:53:55.483Z,98650.91
2023-02-22T13:56:28.190Z,98652.77
2023-02-22T13:59:02.715Z,98654.38
2023-02-22T14:01:49.405Z,98654.05
2023-02-22T14:04:49.268Z,98649.74
2023-02-22T14:07:59.586Z,98649.30
2023-02-22T14:10:55.127Z,98647.96
2023-02-22T14:13:28.778Z,98651.85
2023-02-22T14:16:22.873Z,98652.00
2023-02-22T14:19:06.947Z,98651.23
2023-02-22T14:21:44.009Z,98651.72
2023-02-22T14:24:19.204Z,98658.02
2023-02-22T14:27:02.164Z,98657.81
2023-02-22T14:29:35.447Z,98655.17
2023-02-22T14:32:10.763Z,98653.07
2023-02-22T14:34:52.101Z,98658.66
2023-02-22T14:37:26.819Z,98654.63
2023-02-22T14:40:13.000Z,98650.10
2023-02-22T14:42:52.264Z,98658.21
2023-02-22T14:45:29.288Z,98659.45
2023-02-22T14:48:13.915Z,98658.55
2023-02-22T14:50:52.504Z,98654.35
2023-02-22T14:53:34.757Z,98654.33
2023-02-22T14:56:11.841Z,98658.18
2023-02-22T14:58:48.128Z,98658.20
2023-02-22T15:01:33.890Z,98662.34
2023-02-22T15:07:27.637Z,98654.70
2023-02-22T15:10:26.029Z,98657.36
2023-02-22T15:13:10.752Z,98653.64
2023-02-22T15:15:50.311Z,98653.24
2023-02-22T15:18:33.907Z,98651.48
2023-02-22T15:21:13.483Z,98652.70
2023-02-22T15:23:54.677Z,98652.34
2023-02-22T15:26:28.860Z,98653.48
2023-02-22T15:29:02.905Z,98658.11
2023-02-22T15:31:38.992Z,98660.65
2023-02-22T15:34:25.906Z,98661.92
2023-02-22T15:37:07.775Z,98661.52
2023-02-22T15:39:44.051Z,98664.88
2023-02-22T15:42:25.066Z,98659.84
2023-02-22T15:45:00.553Z,98659.38
2023-02-22T15:48:00.895Z,98658.60
2023-02-22T15:50:35.370Z,98664.52
2023-02-22T15:53:09.885Z,98663.96
2023-02-22T15:55:48.851Z,98661.14
2023-02-22T15:58:30.172Z,98657.79
2023-02-22T16:01:28.880Z,98663.58
2023-02-22T16:04:03.141Z,98664.05
2023-02-22T16:06:37.064Z,98659.62
2023-02-22T16:15:27.430Z,98665.98
2023-02-22T16:18:02.418Z,98668.05
2023-02-22T16:21:08.738Z,98668.20
2023-02-22T16:24:16.522Z,98667.58
2023-02-22T16:27:22.199Z,98670.13
2023-02-22T16:30:26.858Z,98667.95
2023-02-22T16:33:03.857Z,98676.45
2023-02-22T16:38:59.056Z,98682.20
2023-02-22T16:41:34.304Z,98685.35
2023-02-22T16:44:56.684Z,98685.58
2023-02-22T16:48:03.043Z,98685.38
2023-02-22T16:50:37.596Z,98684.48
2023-02-22T16:53:41.445Z,98686.61
2023-02-22T16:56:19.491Z,98687.13
2023-02-22T16:58:54.514Z,98686.75
2023-02-22T17:01:29.804Z,98689.90
2023-02-22T17:04:06.076Z,98690.96
2023-02-22T17:06:40.646Z,98689.34
2023-02-22T17:09:20.248Z,98688.70
2023-02-22T17:12:22.360Z,98693.89
2023-02-22T17:14:59.991Z,98692.84
2023-02-22T17:17:35.479Z,98696.85
2023-02-22T17:20:12.548Z,98696.69
2023-02-22T17:22:45.570Z,98695.86
2023-02-22T17:25:26.331Z,98696.63
2023-02-22T17:28:02.667Z,98694.78
2023-02-22T17:30:36.382Z,98697.21
2023-02-22T17:36:38.009Z,98695.70
2023-02-22T17:39:16.305Z,98695.33
2023-02-22T17:45:20.443Z,98695.19
2023-02-22T17:48:24.147Z,98696.05
2023-02-22T17:51:00.028Z,98698.31
2023-02-22T17:53:37.409Z,98695.19
2023-02-22T17:59:22.604Z,98696.41
2023-02-22T18:02:03.372Z,98700.52
2023-02-22T18:05:03.378Z,98700.73
2023-02-22T18:07:39.043Z,98701.45
2023-02-22T18:10:35.820Z,98704.47
2023-02-22T18:13:32.455Z,98705.31
2023-02-22T18:16:06.429Z,98705.58
2023-02-22T18:18:42.329Z,98709.11
2023-02-22T18:21:16.384Z,98709.20
2023-02-22T18:23:50.513Z,98710.68
2023-02-22T18:29:48.703Z,98715.02
2023-02-22T18:32:22.643Z,98711.88
2023-02-22T18:34:57.437Z,98711.48
2023-02-22T18:37:56.810Z,98707.88
2023-02-22T18:40:33.394Z,98705.90
2023-02-22T18:43:05.745Z,98705.77
2023-02-22T18:45:38.165Z,98706.77
2023-02-22T18:48:11.876Z,98705.83
2023-02-22T18:50:47.971Z,98708.02
2023-02-22T18:53:23.994Z,98707.03
2023-02-22T18:55:58.415Z,98707.89
2023-02-22T18:58:34.493Z,98708.31
2023-02-22T19:01:09.562Z,98711.46
2023-02-22T19:03:43.605Z,98711.47
2023-02-22T19:09:44.433Z,98715.54
2023-02-22T19:12:24.948Z,98715.13
2023-02-22T19:15:02.036Z,98718.80
2023-02-22T19:18:27.805Z,98716.77
2023-02-22T19:21:05.400Z,98721.73
2023-02-22T19:23:46.876Z,98721.13
2023-02-22T19:26:32.691Z,98722.20
2023-02-22T19:29:09.144Z,98720.02
2023-02-22T19:31:51.571Z,98721.23
2023-02-22T19:34:32.627Z,98726.23
2023-02-22T19:37:06.340Z,98721.48
2023-02-22T19:39:41.221Z,98726.77
2023-02-22T19:42:14.155Z,98724.15
2023-02-22T19:44:50.189Z,98724.99
2023-02-22T19:48:10.418Z,98722.08
2023-02-22T19:50:49.359Z,98721.11
2023-02-22T19:53:24.089Z,98716.20
2023-02-22T19:59:09.618Z,98722.44
2023-02-22T20:02:29.921Z,98721.01
2023-02-22T20:05:26.409Z,98724.39
2023-02-22T20:08:49.422Z,98724.75
2023-02-22T20:11:25.071Z,98723.29
2023-02-22T20:14:27.029Z,98729.39
2023-02-22T20:17:00.153Z,98725.27
2023-02-22T20:22:57.137Z,98725.13
2023-02-22T20:25:30.538Z,98728.92
2023-02-22T20:28:12.095Z,98727.19
2023-02-22T20:30:47.623Z,98730.55
2023-02-22T20:33:23.539Z,98729.35
2023-02-22T20:36:27.003Z,98729.63
2023-02-22T20:39:13.610Z,98730.71
2023-02-22T20:41:49.455Z,98736.24
2023-02-22T20:44:26.683Z,98737.09
2023-02-22T20:47:02.500Z,98738.79
2023-02-22T20:49:44.209Z,98738.05
2023-02-22T20:52:24.968Z,98744.14
2023-02-22T20:55:04.319Z,98741.35
2023-02-22T20:58:04.887Z,98742.41
2023-02-22T21:00:46.329Z,98740.71
2023-02-22T21:03:20.876Z,98741.34
2023-02-22T21:08:57.130Z,98740.48
2023-02-22T21:11:57.628Z,98742.15
2023-02-22T21:14:40.262Z,98740.72
2023-02-22T21:17:23.005Z,98747.88
2023-02-22T21:20:27.997Z,98745.48
2023-02-22T21:23:06.039Z,98742.25
2023-02-22T21:25:38.256Z,98741.84
2023-02-22T21:28:11.874Z,98742.45
2023-02-22T21:30:50.247Z,98742.08
2023-02-22T21:34:14.699Z,98743.05
2023-02-22T21:36:48.830Z,98736.63
2023-02-22T21:39:28.583Z,98736.50
2023-02-22T21:42:03.532Z,98735.20
2023-02-22T21:44:47.181Z,98730.41
2023-02-22T21:48:10.011Z,98730.09
2023-02-22T21:50:44.721Z,98726.19
2023-02-22T21:53:19.131Z,98722.67
2023-02-22T22:02:08.854Z,98721.13
2023-02-22T22:08:07.577Z,98719.25
2023-02-22T22:10:48.370Z,98716.52
2023-02-22T22:13:23.083Z,98711.23
2023-02-22T22:15:56.068Z,98712.52
2023-02-22T22:18:29.219Z,98710.85
2023-02-22T22:21:02.323Z,98712.62
2023-02-22T22:23:39.086Z,98711.75
2023-02-22T22:26:13.863Z,98713.27
2023-02-22T22:28:52.168Z,98713.36
2023-02-22T22:31:30.690Z,98712.26
2023-02-22T22:34:04.577Z,98713.60
2023-02-22T22:37:30.186Z,98711.25
2023-02-22T22:40:05.968Z,98713.12
2023-02-22T22:42:44.862Z,98713.41
2023-02-22T22:45:45.705Z,98710.63
2023-02-22T22:48:22.937Z,98712.39
2023-02-22T22:51:08.153Z,98712.72
2023-02-22T22:54:15.896Z,98710.50
2023-02-22T22:57:12.853Z,98712.65
2023-02-22T23:02:55.375Z,98709.59
2023-02-22T23:05:29.667Z,98706.63
2023-02-22T23:08:29.414Z,98704.84
2023-02-22T23:11:08.265Z,98701.63
2023-02-22T23:13:44.083Z,98699.58
2023-02-22T23:17:17.363Z,98699.10
2023-02-22T23:19:57.011Z,98697.77
2023-02-22T23:22:58.023Z,98703.80
2023-02-22T23:25:35.905Z,98702.55
2023-02-22T23:28:15.954Z,98699.58
2023-02-22T23:30:52.407Z,98700.95
2023-02-22T23:33:52.104Z,98704.04
2023-02-22T23:36:29.458Z,98700.11
2023-02-22T23:39:29.710Z,98702.41
2023-02-22T23:42:04.062Z,98700.58
2023-02-22T23:45:03.075Z,98703.36
2023-02-22T23:47:37.019Z,98701.64
2023-02-22T23:50:16.311Z,98701.02
2023-02-22T23:56:18.046Z,98703.92
2023-02-22T23:58:53.606Z,98707.75
